createdAt,value
2022-09-28T00:01:21.674Z,10.80
2022-09-28T00:03:54.633Z,10.80
2022-09-28T00:06:25.533Z,10.80
2022-09-28T00:08:53.221Z,10.80
2022-09-28T00:11:23.512Z,10.80
2022-09-28T00:13:56.598Z,10.80
2022-09-28T00:16:29.082Z,10.80
2022-09-28T00:18:56.980Z,10.80
2022-09-28T00:21:29.177Z,10.80
2022-09-28T00:24:12.590Z,10.90
2022-09-28T00:26:58.025Z,10.90
2022-09-28T00:29:37.312Z,10.90
2022-09-28T00:32:10.488Z,10.90
2022-09-28T00:34:43.251Z,10.90
2022-09-28T00:37:13.113Z,10.90
2022-09-28T00:39:44.449Z,10.90
2022-09-28T00:42:20.827Z,10.90
2022-09-28T00:44:49.314Z,10.90
2022-09-28T00:47:39.363Z,10.90
2022-09-28T00:50:33.280Z,10.80
2022-09-28T00:53:09.336Z,10.80
2022-09-28T00:55:49.992Z,10.74
2022-09-28T00:58:25.047Z,10.70
2022-09-28T01:00:59.222Z,10.72
2022-09-28T01:03:29.038Z,10.80
2022-09-28T01:06:02.562Z,10.78
2022-09-28T01:08:34.138Z,10.70
2022-09-28T01:11:02.308Z,10.70
2022-09-28T01:13:33.215Z,10.70
2022-09-28T01:16:22.005Z,10.70
2022-09-28T01:19:26.264Z,10.80
2022-09-28T01:22:32.677Z,10.80
2022-09-28T01:25:42.278Z,10.80
2022-09-28T01:28:17.940Z,10.72
2022-09-28T01:31:21.388Z,10.70
2022-09-28T01:34:01.048Z,10.72
2022-09-28T01:36:55.257Z,10.80
2022-09-28T01:39:47.485Z,10.88
2022-09-28T01:42:23.752Z,10.90
2022-09-28T01:44:57.028Z,10.88
2022-09-28T01:47:29.033Z,10.90
2022-09-28T01:50:11.014Z,10.90
2022-09-28T01:53:16.492Z,10.90
2022-09-28T01:55:51.761Z,10.88
2022-09-28T01:58:30.754Z,10.90
2022-09-28T02:01:09.978Z,10.90
2022-09-28T02:03:48.701Z,10.90
2022-09-28T02:06:24.668Z,10.90
2022-09-28T02:09:05.569Z,10.88
2022-09-28T02:11:37.296Z,10.80
2022-09-28T02:14:10.319Z,10.80
2022-09-28T02:16:45.739Z,10.80
2022-09-28T02:19:25.887Z,10.80
2022-09-28T02:22:23.181Z,10.80
2022-09-28T02:25:03.315Z,10.80
2022-09-28T02:27:46.565Z,10.72
2022-09-28T02:30:14.612Z,10.70
2022-09-28T02:32:47.958Z,10.70
2022-09-28T02:35:20.078Z,10.70
2022-09-28T02:37:49.830Z,10.70
2022-09-28T02:40:28.886Z,10.70
2022-09-28T02:43:28.063Z,10.60
2022-09-28T02:46:32.755Z,10.60
2022-09-28T02:49:39.932Z,10.60
2022-09-28T02:52:43.515Z,10.50
2022-09-28T02:55:45.394Z,10.40
2022-09-28T02:58:40.369Z,10.38
2022-09-28T03:01:45.511Z,10.30
2022-09-28T03:04:43.922Z,10.20
2022-09-28T03:07:35.095Z,10.24
2022-09-28T03:10:17.670Z,10.30
2022-09-28T03:12:48.951Z,10.28
2022-09-28T03:15:28.129Z,10.30
2022-09-28T03:17:57.574Z,10.30
2022-09-28T03:20:28.185Z,10.26
2022-09-28T03:23:22.665Z,10.26
2022-09-28T03:25:43.642Z,10.30
2022-09-28T03:28:11.216Z,10.30
2022-09-28T03:30:39.324Z,10.30
2022-09-28T03:33:07.104Z,10.32
2022-09-28T03:35:34.694Z,10.40
2022-09-28T03:38:02.219Z,10.40
2022-09-28T03:40:29.997Z,10.40
2022-09-28T03:42:57.640Z,10.40
2022-09-28T03:45:25.266Z,10.42
2022-09-28T03:47:52.910Z,10.44
2022-09-28T03:50:20.514Z,10.50
2022-09-28T03:52:48.440Z,10.50
2022-09-28T03:55:16.357Z,10.50
2022-09-28T03:57:43.892Z,10.50
2022-09-28T04:00:12.800Z,10.50
2022-09-28T04:02:40.470Z,10.50
2022-09-28T04:05:09.354Z,10.50
2022-09-28T04:07:36.981Z,10.50
2022-09-28T04:10:05.020Z,10.50
2022-09-28T04:12:32.650Z,10.50
2022-09-28T04:15:00.257Z,10.50
2022-09-28T04:17:27.852Z,10.50
2022-09-28T04:19:55.413Z,10.50
2022-09-28T04:22:23.369Z,10.50
2022-09-28T04:24:50.924Z,10.50
2022-09-28T04:27:37.121Z,10.40
2022-09-28T04:30:05.244Z,10.40
2022-09-28T04:32:32.913Z,10.38
2022-09-28T04:35:00.533Z,10.30
2022-09-28T04:37:28.175Z,10.30
2022-09-28T04:39:55.737Z,10.20
2022-09-28T04:42:23.329Z,10.20
2022-09-28T04:44:51.009Z,10.12
2022-09-28T04:47:19.040Z,10.10
2022-09-28T04:49:46.722Z,10.10
2022-09-28T04:52:18.344Z,10.08
2022-09-28T04:54:46.466Z,10.00
2022-09-28T04:57:13.984Z,9.90
2022-09-28T04:59:41.531Z,9.90
2022-09-28T05:02:09.245Z,9.90
2022-09-28T05:04:36.881Z,9.82
2022-09-28T05:07:04.493Z,9.80
2022-09-28T05:09:35.020Z,9.80
2022-09-28T05:12:05.935Z,9.80
2022-09-28T05:14:33.597Z,9.90
2022-09-28T05:17:01.369Z,9.90
2022-09-28T05:19:30.334Z,10.00
2022-09-28T05:22:04.114Z,10.00
2022-09-28T05:24:31.902Z,10.10
2022-09-28T05:26:59.458Z,10.10
2022-09-28T05:29:31.365Z,10.10
2022-09-28T05:32:01.494Z,10.10
2022-09-28T05:34:29.738Z,10.12
2022-09-28T05:36:57.381Z,10.20
2022-09-28T05:39:25.043Z,10.20
2022-09-28T05:41:52.733Z,10.20
2022-09-28T05:44:20.322Z,10.26
2022-09-28T05:46:47.889Z,10.30
2022-09-28T05:49:15.620Z,10.30
2022-09-28T05:51:43.197Z,10.30
2022-09-28T05:54:10.967Z,10.36
2022-09-28T05:56:38.620Z,10.40
2022-09-28T05:59:06.298Z,10.30
2022-09-28T06:01:34.052Z,10.30
2022-09-28T06:04:01.672Z,10.32
2022-09-28T06:06:29.392Z,10.40
2022-09-28T06:08:56.989Z,10.36
2022-09-28T06:11:27.847Z,10.40
2022-09-28T06:13:55.684Z,10.40
2022-09-28T06:16:24.254Z,10.40
2022-09-28T06:18:51.863Z,10.34
2022-09-28T06:21:19.375Z,10.30
2022-09-28T06:23:49.164Z,10.30
2022-09-28T06:26:17.945Z,10.30
2022-09-28T06:28:45.608Z,10.30
2022-09-28T06:31:13.332Z,10.30
2022-09-28T06:33:42.165Z,10.30
2022-09-28T06:36:10.288Z,10.30
2022-09-28T06:38:38.354Z,10.30
2022-09-28T06:41:06.567Z,10.30
2022-09-28T06:43:35.137Z,10.30
2022-09-28T06:46:03.138Z,10.30
2022-09-28T06:48:31.755Z,10.20
2022-09-28T06:51:00.790Z,10.22
2022-09-28T06:53:29.407Z,10.20
2022-09-28T06:55:57.583Z,10.20
2022-09-28T06:58:27.553Z,10.20
2022-09-28T07:01:00.443Z,10.30
2022-09-28T07:03:28.113Z,10.30
2022-09-28T07:05:57.040Z,10.40
2022-09-28T07:08:26.297Z,10.40
2022-09-28T07:10:56.280Z,10.40
2022-09-28T07:16:16.247Z,10.50
2022-09-28T07:18:43.882Z,10.50
2022-09-28T07:21:23.611Z,10.58
2022-09-28T07:23:54.663Z,10.70
2022-09-28T07:26:24.386Z,10.70
2022-09-28T07:28:53.868Z,10.80
2022-09-28T07:31:21.698Z,10.80
2022-09-28T07:33:53.872Z,10.80
2022-09-28T07:36:22.689Z,10.80
2022-09-28T07:38:50.449Z,10.90
2022-09-28T07:41:22.563Z,11.10
2022-09-28T07:43:50.262Z,11.20
2022-09-28T07:46:17.987Z,11.20
2022-09-28T07:48:46.045Z,11.30
2022-09-28T07:51:14.059Z,11.30
2022-09-28T07:53:41.690Z,11.26
2022-09-28T07:56:09.467Z,11.20
2022-09-28T07:58:39.653Z,11.20
2022-09-28T08:01:10.691Z,11.14
2022-09-28T08:03:39.160Z,11.10
2022-09-28T08:06:11.256Z,11.10
2022-09-28T08:08:44.701Z,11.10
2022-09-28T08:11:16.824Z,11.10
2022-09-28T08:13:46.439Z,11.20
2022-09-28T08:16:14.200Z,11.36
2022-09-28T08:18:42.014Z,11.38
2022-09-28T08:21:29.443Z,11.38
2022-09-28T08:23:57.370Z,11.40
2022-09-28T08:26:25.240Z,11.40
2022-09-28T08:28:52.819Z,11.30
2022-09-28T08:31:22.405Z,11.40
2022-09-28T08:33:53.719Z,11.50
2022-09-28T08:36:21.262Z,11.60
2022-09-28T08:38:48.789Z,11.50
2022-09-28T08:41:28.169Z,11.60
2022-09-28T08:44:26.132Z,11.50
2022-09-28T08:47:32.836Z,11.60
2022-09-28T08:50:05.324Z,11.70
2022-09-28T08:52:39.525Z,11.70
2022-09-28T08:55:38.993Z,11.80
2022-09-28T08:58:20.495Z,11.80
2022-09-28T09:00:51.707Z,12.00
2022-09-28T09:03:27.632Z,12.00
2022-09-28T09:06:19.509Z,12.10
2022-09-28T09:08:57.349Z,12.20
2022-09-28T09:11:50.258Z,12.20
2022-09-28T09:14:37.467Z,12.24
2022-09-28T09:17:47.068Z,12.30
2022-09-28T09:20:20.584Z,12.40
2022-09-28T09:23:00.625Z,12.48
2022-09-28T09:25:48.266Z,12.50
2022-09-28T09:29:18.935Z,12.50
2022-09-28T09:32:22.828Z,12.50
2022-09-28T09:35:21.321Z,12.50
2022-09-28T09:38:17.525Z,12.60
2022-09-28T09:41:07.078Z,12.60
2022-09-28T09:44:21.171Z,12.74
2022-09-28T09:47:08.148Z,12.90
2022-09-28T09:49:55.604Z,12.98
2022-09-28T09:55:18.662Z,13.00
2022-09-28T09:57:55.716Z,13.00
2022-09-28T10:00:24.200Z,13.00
2022-09-28T10:02:53.349Z,13.00
2022-09-28T10:05:27.755Z,13.00
2022-09-28T10:08:16.472Z,12.98
2022-09-28T10:11:09.468Z,12.90
2022-09-28T10:13:37.060Z,12.90
2022-09-28T10:16:07.119Z,12.90
2022-09-28T10:18:36.420Z,12.90
2022-09-28T10:21:04.794Z,13.00
2022-09-28T10:23:36.714Z,13.00
2022-09-28T10:26:25.349Z,13.10
2022-09-28T10:29:03.501Z,13.10
2022-09-28T10:31:40.257Z,13.20
2022-09-28T10:34:14.865Z,13.20
2022-09-28T10:36:56.046Z,13.12
2022-09-28T10:39:55.387Z,13.10
2022-09-28T10:42:30.624Z,13.10
2022-09-28T10:45:20.026Z,13.10
2022-09-28T10:47:47.743Z,13.10
2022-09-28T10:50:27.568Z,13.10
2022-09-28T10:53:16.602Z,13.10
2022-09-28T10:55:59.338Z,13.16
2022-09-28T10:58:36.163Z,13.24
2022-09-28T11:01:10.565Z,13.30
2022-09-28T11:04:02.405Z,13.30
2022-09-28T11:06:36.967Z,13.30
2022-09-28T11:09:33.301Z,13.30
2022-09-28T11:12:06.217Z,13.40
2022-09-28T11:14:42.979Z,13.40
2022-09-28T11:17:42.124Z,13.40
2022-09-28T11:20:27.945Z,13.50
2022-09-28T11:22:59.157Z,13.50
2022-09-28T11:25:30.268Z,13.50
2022-09-28T11:28:04.514Z,13.46
2022-09-28T11:30:40.987Z,13.44
2022-09-28T11:33:20.488Z,13.42
2022-09-28T11:36:17.074Z,13.40
2022-09-28T11:39:12.241Z,13.50
2022-09-28T11:42:31.402Z,13.50
2022-09-28T11:45:39.952Z,13.44
2022-09-28T11:48:45.391Z,13.40
2022-09-28T11:51:27.006Z,13.50
2022-09-28T11:54:20.846Z,13.50
2022-09-28T11:56:51.352Z,13.60
2022-09-28T11:59:29.239Z,13.60
2022-09-28T12:02:05.261Z,13.60
2022-09-28T12:04:48.717Z,13.66
2022-09-28T12:07:23.307Z,13.62
2022-09-28T12:10:04.249Z,13.70
2022-09-28T12:12:53.484Z,13.70
2022-09-28T12:15:38.228Z,13.70
2022-09-28T12:18:24.817Z,13.70
2022-09-28T12:21:07.691Z,13.80
2022-09-28T12:23:40.384Z,13.90
2022-09-28T12:27:02.684Z,13.90
2022-09-28T12:29:47.606Z,13.90
2022-09-28T12:32:37.601Z,13.96
2022-09-28T12:35:36.021Z,14.00
2022-09-28T12:38:41.464Z,14.00
2022-09-28T12:41:42.755Z,14.00
2022-09-28T12:44:46.052Z,14.00
2022-09-28T12:47:41.534Z,14.00
2022-09-28T12:50:52.604Z,14.10
2022-09-28T12:53:40.420Z,14.08
2022-09-28T12:56:23.575Z,14.10
2022-09-28T12:59:03.047Z,14.10
2022-09-28T13:02:19.632Z,14.06
2022-09-28T13:05:28.462Z,14.06
2022-09-28T13:08:48.506Z,14.00
2022-09-28T13:12:00.823Z,14.00
2022-09-28T13:14:53.238Z,14.06
2022-09-28T13:17:45.060Z,14.10
2022-09-28T13:20:51.736Z,14.10
2022-09-28T13:23:28.910Z,14.10
2022-09-28T13:26:27.226Z,14.20
2022-09-28T13:29:04.314Z,14.20
2022-09-28T13:31:35.974Z,14.20
2022-09-28T13:34:07.174Z,14.20
2022-09-28T13:36:37.529Z,14.20
2022-09-28T13:39:36.197Z,14.20
2022-09-28T13:42:08.422Z,14.20
2022-09-28T13:44:47.599Z,14.18
2022-09-28T13:47:44.433Z,14.12
2022-09-28T13:50:31.067Z,14.10
2022-09-28T13:53:16.845Z,14.10
2022-09-28T13:56:11.470Z,14.08
2022-09-28T13:58:53.500Z,14.00
2022-09-28T14:01:26.621Z,14.00
2022-09-28T14:04:15.999Z,14.00
2022-09-28T14:06:57.545Z,14.00
2022-09-28T14:09:48.235Z,14.00
2022-09-28T14:12:33.813Z,14.00
2022-09-28T14:15:06.557Z,14.00
2022-09-28T14:18:24.888Z,14.00
2022-09-28T14:21:39.633Z,13.90
2022-09-28T14:24:38.261Z,13.90
2022-09-28T14:27:55.859Z,13.90
2022-09-28T14:30:46.702Z,13.80
2022-09-28T14:33:32.128Z,13.80
2022-09-28T14:36:40.884Z,13.80
2022-09-28T14:39:47.785Z,13.80
2022-09-28T14:42:22.373Z,13.70
2022-09-28T14:45:06.115Z,13.70
2022-09-28T14:47:44.792Z,13.60
2022-09-28T14:50:27.129Z,13.60
2022-09-28T14:53:03.668Z,13.54
2022-09-28T14:55:51.113Z,13.50
2022-09-28T14:58:27.548Z,13.50
2022-09-28T15:01:17.219Z,13.50
2022-09-28T15:03:49.489Z,13.40
2022-09-28T15:06:19.734Z,13.30
2022-09-28T15:08:56.865Z,13.28
2022-09-28T15:11:26.352Z,13.20
2022-09-28T15:14:07.412Z,13.18
2022-09-28T15:16:35.043Z,13.10
2022-09-28T15:19:53.599Z,13.10
2022-09-28T15:22:21.893Z,13.10
2022-09-28T15:25:02.476Z,13.10
2022-09-28T15:27:38.022Z,13.00
2022-09-28T15:30:36.512Z,13.00
2022-09-28T15:33:24.588Z,12.98
2022-09-28T15:36:07.165Z,12.90
2022-09-28T15:38:35.565Z,12.90
2022-09-28T15:41:06.655Z,12.90
2022-09-28T15:43:37.187Z,12.90
2022-09-28T15:46:13.269Z,12.80
2022-09-28T15:49:02.541Z,12.80
2022-09-28T15:51:50.060Z,12.80
2022-09-28T15:54:29.153Z,12.80
2022-09-28T15:56:59.877Z,12.72
2022-09-28T15:59:39.420Z,12.72
2022-09-28T16:02:09.778Z,12.70
2022-09-28T16:05:01.006Z,12.60
2022-09-28T16:07:41.604Z,12.60
2022-09-28T16:10:12.071Z,12.60
2022-09-28T16:12:39.832Z,12.62
2022-09-28T16:15:23.450Z,12.60
2022-09-28T16:17:56.635Z,12.68
2022-09-28T16:20:34.069Z,12.66
2022-09-28T16:23:33.355Z,12.62
2022-09-28T16:26:32.198Z,12.62
2022-09-28T16:29:07.354Z,12.60
2022-09-28T16:31:41.369Z,12.64
2022-09-28T16:34:24.946Z,12.60
2022-09-28T16:36:52.698Z,12.60
2022-09-28T16:39:20.720Z,12.60
2022-09-28T16:41:59.403Z,12.60
2022-09-28T16:44:32.722Z,12.60
2022-09-28T16:47:00.870Z,12.60
2022-09-28T16:49:31.611Z,12.64
2022-09-28T16:52:00.405Z,12.68
2022-09-28T16:54:47.871Z,12.66
2022-09-28T16:57:16.336Z,12.60
2022-09-28T16:59:43.954Z,12.60
2022-09-28T17:02:42.158Z,12.68
2022-09-28T17:05:07.029Z,12.70
2022-09-28T17:07:34.897Z,12.70
2022-09-28T17:10:02.615Z,12.70
2022-09-28T17:12:30.255Z,12.60
2022-09-28T17:14:58.603Z,12.60
2022-09-28T17:17:29.886Z,12.64
2022-09-28T17:19:57.562Z,12.66
2022-09-28T17:22:25.188Z,12.60
2022-09-28T17:24:52.710Z,12.58
2022-09-28T17:27:21.628Z,12.50
2022-09-28T17:29:49.267Z,12.42
2022-09-28T17:32:20.065Z,12.50
2022-09-28T17:34:56.006Z,12.50
2022-09-28T17:37:28.729Z,12.40
2022-09-28T17:39:56.276Z,12.40
2022-09-28T17:42:23.841Z,12.30
2022-09-28T17:44:51.925Z,12.30
2022-09-28T17:47:19.558Z,12.30
2022-09-28T17:49:47.151Z,12.30
2022-09-28T17:52:14.981Z,12.30
2022-09-28T17:54:42.733Z,12.30
2022-09-28T17:57:10.448Z,12.30
2022-09-28T17:59:38.209Z,12.20
2022-09-28T18:02:08.459Z,12.20
2022-09-28T18:04:51.248Z,12.20
2022-09-28T18:07:19.732Z,12.20
2022-09-28T18:09:47.442Z,12.30
2022-09-28T18:12:15.183Z,12.30
2022-09-28T18:14:42.926Z,12.30
2022-09-28T18:17:10.606Z,12.22
2022-09-28T18:19:38.248Z,12.20
2022-09-28T18:22:05.825Z,12.20
2022-09-28T18:24:33.505Z,12.20
2022-09-28T18:27:01.289Z,12.20
2022-09-28T18:29:33.074Z,12.20
2022-09-28T18:32:02.410Z,12.10
2022-09-28T18:34:30.318Z,12.10
2022-09-28T18:36:57.978Z,12.10
2022-09-28T18:39:26.533Z,12.00
2022-09-28T18:41:54.675Z,12.00
2022-09-28T18:44:22.648Z,11.90
2022-09-28T18:46:51.549Z,11.90
2022-09-28T18:49:19.331Z,11.90
2022-09-28T18:51:47.456Z,11.88
2022-09-28T18:54:15.820Z,11.86
2022-09-28T18:56:43.445Z,11.80
2022-09-28T18:59:12.545Z,11.80
2022-09-28T19:01:42.007Z,11.80
2022-09-28T19:04:11.694Z,11.70
2022-09-28T19:06:42.811Z,11.70
2022-09-28T19:09:10.973Z,11.60
2022-09-28T19:11:38.559Z,11.60
2022-09-28T19:14:06.193Z,11.50
2022-09-28T19:16:34.110Z,11.50
2022-09-28T19:19:03.210Z,11.48
2022-09-28T19:21:31.448Z,11.50
2022-09-28T19:24:03.988Z,11.42
2022-09-28T19:26:33.192Z,11.40
2022-09-28T19:29:02.749Z,11.40
2022-09-28T19:31:31.135Z,11.50
2022-09-28T19:33:59.133Z,11.50
2022-09-28T19:36:28.557Z,11.50
2022-09-28T19:38:58.785Z,11.50
2022-09-28T19:41:45.926Z,11.54
2022-09-28T19:44:27.652Z,11.60
2022-09-28T19:47:06.681Z,11.60
2022-09-28T19:49:38.631Z,11.70
2022-09-28T19:52:15.683Z,11.70
2022-09-28T19:54:59.147Z,11.72
2022-09-28T19:57:32.611Z,11.80
2022-09-28T20:00:03.600Z,11.80
2022-09-28T20:02:34.354Z,11.80
2022-09-28T20:05:02.620Z,11.80
2022-09-28T20:07:32.971Z,11.80
2022-09-28T20:10:00.764Z,11.80
2022-09-28T20:12:28.384Z,11.80
2022-09-28T20:14:56.003Z,11.82
2022-09-28T20:17:23.844Z,11.80
2022-09-28T20:19:51.783Z,11.78
2022-09-28T20:22:20.067Z,11.70
2022-09-28T20:24:47.609Z,11.70
2022-09-28T20:27:15.167Z,11.70
2022-09-28T20:29:43.143Z,11.70
2022-09-28T20:32:12.228Z,11.72
2022-09-28T20:34:39.807Z,11.70
2022-09-28T20:37:07.366Z,11.70
2022-09-28T20:39:34.972Z,11.70
2022-09-28T20:42:02.800Z,11.70
2022-09-28T20:44:31.265Z,11.70
2022-09-28T20:46:59.373Z,11.80
2022-09-28T20:49:28.126Z,11.80
2022-09-28T20:51:55.825Z,11.80
2022-09-28T20:54:23.490Z,11.72
2022-09-28T20:56:51.422Z,11.70
2022-09-28T20:59:22.579Z,11.70
2022-09-28T21:01:51.036Z,11.80
2022-09-28T21:04:19.723Z,11.80
2022-09-28T21:06:47.489Z,11.80
2022-09-28T21:09:15.029Z,11.80
2022-09-28T21:11:43.033Z,11.80
2022-09-28T21:14:10.745Z,11.80
2022-09-28T21:16:38.874Z,11.80
2022-09-28T21:19:06.869Z,11.80
2022-09-28T21:21:34.583Z,11.76
2022-09-28T21:24:02.575Z,11.70
2022-09-28T21:26:31.632Z,11.70
2022-09-28T21:29:05.857Z,11.70
2022-09-28T21:31:45.671Z,11.70
2022-09-28T21:34:20.256Z,11.76
2022-09-28T21:36:51.202Z,11.78
2022-09-28T21:39:20.207Z,11.78
2022-09-28T21:41:48.072Z,11.78
2022-09-28T21:44:15.701Z,11.70
2022-09-28T21:46:43.429Z,11.70
2022-09-28T21:49:12.575Z,11.70
2022-09-28T21:51:40.217Z,11.70
2022-09-28T21:54:08.481Z,11.70
2022-09-28T21:56:36.064Z,11.70
2022-09-28T21:59:03.790Z,11.70
2022-09-28T22:01:31.774Z,11.70
2022-09-28T22:04:00.130Z,11.60
2022-09-28T22:06:28.207Z,11.60
2022-09-28T22:08:56.744Z,11.60
2022-09-28T22:11:28.106Z,11.60
2022-09-28T22:13:59.312Z,11.60
2022-09-28T22:16:31.184Z,11.60
2022-09-28T22:18:59.925Z,11.60
2022-09-28T22:21:32.675Z,11.60
2022-09-28T22:24:03.356Z,11.50
2022-09-28T22:26:33.908Z,11.50
2022-09-28T22:29:08.553Z,11.50
2022-09-28T22:31:40.083Z,11.50
2022-09-28T22:34:08.984Z,11.50
2022-09-28T22:36:36.972Z,11.50
2022-09-28T22:39:04.798Z,11.50
2022-09-28T22:41:32.789Z,11.50
2022-09-28T22:44:00.798Z,11.50
2022-09-28T22:46:32.184Z,11.50
2022-09-28T22:49:00.513Z,11.44
2022-09-28T22:51:30.096Z,11.40
2022-09-28T22:53:58.671Z,11.44
2022-09-28T22:56:27.001Z,11.46
2022-09-28T22:58:54.734Z,11.40
2022-09-28T23:01:28.864Z,11.42
2022-09-28T23:03:58.059Z,11.40
2022-09-28T23:06:28.967Z,11.40
2022-09-28T23:08:57.558Z,11.30
2022-09-28T23:11:25.320Z,11.38
2022-09-28T23:13:56.735Z,11.40
2022-09-28T23:16:26.821Z,11.40
2022-09-28T23:18:55.940Z,11.40
2022-09-28T23:21:26.653Z,11.40
2022-09-28T23:23:58.846Z,11.40
2022-09-28T23:26:30.797Z,11.30
2022-09-28T23:28:59.605Z,11.30
2022-09-28T23:31:33.147Z,11.30
2022-09-28T23:34:04.726Z,11.30
2022-09-28T23:36:34.577Z,11.20
2022-09-28T23:39:03.217Z,11.20
2022-09-28T23:41:30.815Z,11.20
2022-09-28T23:43:58.442Z,11.10
2022-09-28T23:46:26.245Z,11.18
2022-09-28T23:48:53.904Z,11.12
2022-09-28T23:51:21.489Z,11.10
2022-09-28T23:53:49.178Z,11.10
2022-09-28T23:56:16.902Z,11.10
2022-09-28T23:58:45.039Z,11.10
